Time;durP1;ratioP1;P1;durP2;ratioP2;P2;SDS_P1;SDS_P2;PMS_P1;PMS_P2;Temp;Humidity;BMP_temperature;BMP_pressure;BME280_temperature;BME280_humidity;BME280_pressure;Samples;Min_cycle;Max_cycle;Signal;HPM_P1;HPM_P2
2024/01/27 00:00:00;;;;;;;;;;;;;;;;;;4972244;28;19927;-65
2024/01/27 00:02:27;;;;;;;;;;;;;;;;;;4965794;28;19926;-66
2024/01/27 00:04:54;;;;;;;;;;;;;;;;;;4971316;28;20451;-66
2024/01/27 00:07:21;;;;;;;;;;;;;;;;;;4962021;28;19927;-65
2024/01/27 00:09:48;;;;;;;;;;;;;;;;;;4975834;28;19926;-65
2024/01/27 00:12:15;;;;;;;;;;;;;;;;;;4969565;28;19930;-65
2024/01/27 00:14:43;;;;;;;;;;;;;;;;;;4974768;28;19956;-65
2024/01/27 00:17:10;;;;;;;;;;;;;;;;;;4969764;28;19934;-65
2024/01/27 00:19:37;;;;;;;;;;;;;;;;;;4970882;28;20015;-65
2024/01/27 00:22:04;;;;;;;;;;;;;;;;;;4966322;28;19933;-66
2024/01/27 00:24:31;;;;;;;;;;;;;;;;;;4967490;28;19930;-66
2024/01/27 00:26:58;;;;;;;;;;;;;;;;;;4969130;28;19941;-66
2024/01/27 00:29:26;;;;;;;;;;;;;;;;;;4972673;28;19927;-66
2024/01/27 00:31:54;;;;;;;;;;;;;;;;;;4981348;28;19973;-65
2024/01/27 00:34:21;;;;;;;;;;;;;;;;;;4979315;28;19930;-65
2024/01/27 00:36:49;;;;;;;;;;;;;;;;;;4979110;28;19945;-65
2024/01/27 00:39:16;;;;;;;;;;;;;;;;;;4979665;28;20385;-66
2024/01/27 00:41:43;;;;;;;;;;;;;;;;;;4975554;28;19972;-65
2024/01/27 00:44:10;;;;;;;;;;;;;;;;;;4976294;28;19926;-65
2024/01/27 00:46:37;;;;;;;;;;;;;;;;;;4979187;28;19994;-65
2024/01/27 00:49:05;;;;;;;;;;;;;;;;;;4983773;28;19926;-65
2024/01/27 00:51:32;;;;;;;;;;;;;;;;;;4988444;28;20327;-65
2024/01/27 00:53:59;;;;;;;;;;;;;;;;;;4975334;28;19979;-65
2024/01/27 00:56:26;;;;;;;;;;;;;;;;;;4980157;28;19926;-65
2024/01/27 00:58:53;;;;;;;;;;;;;;;;;;4976699;28;19926;-66
2024/01/27 01:01:20;;;;;;;;;;;;;;;;;;4978927;28;20338;-65
2024/01/27 01:03:47;;;;;;;;;;;;;;;;;;4972478;28;19941;-65
2024/01/27 01:06:14;;;;;;;;;;;;;;;;;;4983060;28;20020;-65
2024/01/27 01:08:41;;;;;;;;;;;;;;;;;;4978720;28;20406;-65
2024/01/27 01:11:08;;;;;;;;;;;;;;;;;;4980503;28;19978;-65
2024/01/27 01:13:35;;;;;;;;;;;;;;;;;;4981841;28;19971;-65
2024/01/27 01:16:03;;;;;;;;;;;;;;;;;;4976153;28;19973;-65
2024/01/27 01:18:30;;;;;;;;;;;;;;;;;;5003759;28;19926;-64
2024/01/27 01:20:57;;;;;;;;;;;;;;;;;;4970588;28;19930;-64
2024/01/27 01:23:24;;;;;;;;;;;;;;;;;;4972047;28;19926;-65
2024/01/27 01:25:51;;;;;;;;;;;;;;;;;;4970391;28;19980;-64
2024/01/27 01:28:18;;;;;;;;;;;;;;;;;;4970161;28;20438;-64
2024/01/27 01:30:45;;;;;;;;;;;;;;;;;;4970664;28;20009;-64
2024/01/27 01:33:12;;;;;;;;;;;;;;;;;;4970568;28;19934;-64
2024/01/27 01:35:39;;;;;;;;;;;;;;;;;;4969875;28;20018;-64
2024/01/27 01:38:06;;;;;;;;;;;;;;;;;;4969890;28;19971;-65
2024/01/27 01:40:33;;;;;;;;;;;;;;;;;;4973237;28;20361;-64
2024/01/27 01:43:00;;;;;;;;;;;;;;;;;;4969653;28;19926;-65
2024/01/27 01:45:27;;;;;;;;;;;;;;;;;;4969987;28;19926;-64
2024/01/27 01:47:54;;;;;;;;;;;;;;;;;;4961693;28;19979;-64
2024/01/27 01:50:22;;;;;;;;;;;;;;;;;;4970528;28;19926;-64
2024/01/27 01:52:49;;;;;;;;;;;;;;;;;;4970054;28;19973;-64
2024/01/27 01:55:16;;;;;;;;;;;;;;;;;;4969973;28;19940;-64
2024/01/27 01:57:43;;;;;;;;;;;;;;;;;;4973934;28;19988;-66
2024/01/27 02:00:10;;;;;;;;;;;;;;;;;;4970443;28;19930;-65
2024/01/27 02:02:37;;;;;;;;;;;;;;;;;;4969594;28;19930;-65
2024/01/27 02:05:04;;;;;;;;;;;;;;;;;;4969633;28;20392;-65
2024/01/27 02:07:31;;;;;;;;;;;;;;;;;;4969505;28;19949;-68
2024/01/27 02:09:58;;;;;;;;;;;;;;;;;;4969211;28;20384;-65
2024/01/27 02:12:25;;;;;;;;;;;;;;;;;;4969757;28;19926;-65
2024/01/27 02:14:52;;;;;;;;;;;;;;;;;;5026935;28;19934;-65
2024/01/27 02:17:20;;;;;;;;;;;;;;;;;;4970015;28;19926;-65
2024/01/27 02:19:47;;;;;;;;;;;;;;;;;;4970043;28;20004;-65
2024/01/27 02:22:14;;;;;;;;;;;;;;;;;;4969382;28;19934;-65
2024/01/27 02:24:41;;;;;;;;;;;;;;;;;;4969382;28;19972;-65
2024/01/27 02:27:08;;;;;;;;;;;;;;;;;;4969373;28;19934;-65
2024/01/27 02:29:35;;;;;;;;;;;;;;;;;;5050031;28;19980;-65
2024/01/27 02:32:02;;;;;;;;;;;;;;;;;;4980990;28;19932;-65
2024/01/27 02:34:29;;;;;;;;;;;;;;;;;;4973045;28;20380;-65
2024/01/27 02:36:56;;;;;;;;;;;;;;;;;;4972501;28;20381;-64
2024/01/27 02:39:23;;;;;;;;;;;;;;;;;;4972012;28;19927;-64
2024/01/27 02:41:50;;;;;;;;;;;;;;;;;;4971777;28;20428;-65
2024/01/27 02:44:17;;;;;;;;;;;;;;;;;;4972985;28;20378;-64
2024/01/27 02:46:44;;;;;;;;;;;;;;;;;;4970343;28;19927;-64
2024/01/27 02:49:11;;;;;;;;;;;;;;;;;;4978863;28;19960;-64
2024/01/27 02:51:38;;;;;;;;;;;;;;;;;;4989839;28;19926;-65
2024/01/27 02:54:05;;;;;;;;;;;;;;;;;;4972396;28;19933;-65
2024/01/27 02:56:32;;;;;;;;;;;;;;;;;;4972597;28;19933;-65
2024/01/27 02:58:59;;;;;;;;;;;;;;;;;;4972876;28;19934;-65
2024/01/27 03:01:26;;;;;;;;;;;;;;;;;;4972973;28;20003;-65
2024/01/27 03:03:53;;;;;;;;;;;;;;;;;;4969890;28;19933;-65
2024/01/27 03:06:21;;;;;;;;;;;;;;;;;;5024997;28;19933;-65
2024/01/27 03:08:48;;;;;;;;;;;;;;;;;;4972467;28;19926;-66
2024/01/27 03:11:15;;;;;;;;;;;;;;;;;;4973322;28;19926;-65
2024/01/27 03:13:45;;;;;;;;;;;;;;;;;;4972919;28;19926;-65
2024/01/27 03:16:12;;;;;;;;;;;;;;;;;;4972529;28;19938;-65
2024/01/27 03:18:39;;;;;;;;;;;;;;;;;;4972033;28;19926;-65
2024/01/27 03:21:06;;;;;;;;;;;;;;;;;;4975857;28;19979;-65
2024/01/27 03:23:33;;;;;;;;;;;;;;;;;;4973978;28;19926;-65
2024/01/27 03:26:00;;;;;;;;;;;;;;;;;;4971358;28;19926;-65
2024/01/27 03:28:27;;;;;;;;;;;;;;;;;;4972384;28;19987;-65
2024/01/27 03:30:54;;;;;;;;;;;;;;;;;;4971996;28;19926;-65
2024/01/27 03:33:22;;;;;;;;;;;;;;;;;;4972811;28;19926;-65
2024/01/27 03:35:49;;;;;;;;;;;;;;;;;;4972933;28;19926;-65
2024/01/27 03:38:16;;;;;;;;;;;;;;;;;;4978352;28;19926;-65
2024/01/27 03:40:43;;;;;;;;;;;;;;;;;;4975791;28;19933;-64
2024/01/27 03:43:10;;;;;;;;;;;;;;;;;;4969730;28;20328;-64
2024/01/27 03:45:37;;;;;;;;;;;;;;;;;;4972081;28;20442;-65
2024/01/27 03:48:04;;;;;;;;;;;;;;;;;;4971756;28;19929;-64
2024/01/27 03:50:32;;;;;;;;;;;;;;;;;;4971858;28;19980;-65
2024/01/27 03:52:59;;;;;;;;;;;;;;;;;;4972180;28;19980;-65
2024/01/27 03:55:26;;;;;;;;;;;;;;;;;;4978736;28;20031;-65
2024/01/27 03:57:55;;;;;;;;;;;;;;;;;;4973097;28;20211;-65
2024/01/27 04:00:22;;;;;;;;;;;;;;;;;;4972527;28;19931;-65
2024/01/27 04:02:49;;;;;;;;;;;;;;;;;;4990671;28;19939;-64
2024/01/27 04:05:16;;;;;;;;;;;;;;;;;;5022464;28;20000;-65
2024/01/27 04:07:43;;;;;;;;;;;;;;;;;;4971458;28;19969;-64
2024/01/27 04:10:10;;;;;;;;;;;;;;;;;;4971966;28;19926;-65
2024/01/27 04:12:37;;;;;;;;;;;;;;;;;;4974814;28;19930;-65
2024/01/27 04:15:04;;;;;;;;;;;;;;;;;;4972099;28;19930;-65
2024/01/27 04:17:31;;;;;;;;;;;;;;;;;;4986304;28;20398;-63
2024/01/27 04:19:58;;;;;;;;;;;;;;;;;;4996156;28;19971;-64
2024/01/27 04:22:26;;;;;;;;;;;;;;;;;;4972931;28;19926;-64
2024/01/27 04:24:53;;;;;;;;;;;;;;;;;;4971364;28;20280;-64
2024/01/27 04:27:22;;;;;;;;;;;;;;;;;;4997523;28;19949;-64
2024/01/27 04:29:49;;;;;;;;;;;;;;;;;;5006985;28;19931;-64
2024/01/27 04:32:16;;;;;;;;;;;;;;;;;;4973050;28;19930;-63
2024/01/27 04:34:43;;;;;;;;;;;;;;;;;;4971313;28;20357;-64
2024/01/27 04:37:10;;;;;;;;;;;;;;;;;;4971124;28;19930;-64
2024/01/27 04:39:37;;;;;;;;;;;;;;;;;;4971852;28;19987;-64
2024/01/27 04:42:06;;;;;;;;;;;;;;;;;;4971683;28;19933;-64
2024/01/27 04:44:33;;;;;;;;;;;;;;;;;;4971337;28;19973;-64
2024/01/27 04:47:00;;;;;;;;;;;;;;;;;;4983258;28;19947;-63
2024/01/27 04:49:27;;;;;;;;;;;;;;;;;;4976885;28;19926;-64
2024/01/27 04:51:54;;;;;;;;;;;;;;;;;;4971333;28;19980;-64
2024/01/27 04:54:21;;;;;;;;;;;;;;;;;;4969416;28;19926;-64
2024/01/27 04:56:48;;;;;;;;;;;;;;;;;;4970603;28;19926;-66
2024/01/27 04:59:15;;;;;;;;;;;;;;;;;;4971037;28;19933;-64
2024/01/27 05:01:42;;;;;;;;;;;;;;;;;;4970876;28;19972;-64
2024/01/27 05:04:09;;;;;;;;;;;;;;;;;;5019302;28;20341;-64
2024/01/27 05:06:38;;;;;;;;;;;;;;;;;;5013600;28;20344;-64
2024/01/27 05:09:05;;;;;;;;;;;;;;;;;;4970507;28;19948;-64
2024/01/27 05:11:32;;;;;;;;;;;;;;;;;;4970074;28;19975;-64
2024/01/27 05:14:00;;;;;;;;;;;;;;;;;;4971221;28;19935;-64
2024/01/27 05:16:27;;;;;;;;;;;;;;;;;;4970498;28;19933;-65
2024/01/27 05:18:54;;;;;;;;;;;;;;;;;;4970749;28;19926;-65
2024/01/27 05:21:21;;;;;;;;;;;;;;;;;;4977658;28;19934;-64
2024/01/27 05:23:48;;;;;;;;;;;;;;;;;;4969934;28;19971;-64
2024/01/27 05:26:15;;;;;;;;;;;;;;;;;;4970535;28;19926;-64
2024/01/27 05:28:42;;;;;;;;;;;;;;;;;;4969787;28;20442;-64
2024/01/27 05:31:09;;;;;;;;;;;;;;;;;;5001085;28;19928;-64
2024/01/27 05:33:36;;;;;;;;;;;;;;;;;;5016565;28;19930;-64
2024/01/27 05:36:03;;;;;;;;;;;;;;;;;;4970761;28;19930;-64
2024/01/27 05:38:31;;;;;;;;;;;;;;;;;;4977060;28;19931;-64
2024/01/27 05:40:58;;;;;;;;;;;;;;;;;;4970367;28;19930;-65
2024/01/27 05:43:25;;;;;;;;;;;;;;;;;;4984145;28;19930;-65
2024/01/27 05:45:53;;;;;;;;;;;;;;;;;;4970130;28;20415;-64
2024/01/27 05:48:20;;;;;;;;;;;;;;;;;;4969723;28;19983;-64
2024/01/27 05:50:47;;;;;;;;;;;;;;;;;;4970729;28;19926;-64
2024/01/27 05:53:14;;;;;;;;;;;;;;;;;;4969680;28;19926;-64
2024/01/27 05:55:41;;;;;;;;;;;;;;;;;;5012184;28;19996;-63
2024/01/27 05:58:08;;;;;;;;;;;;;;;;;;4969822;28;19976;-63
2024/01/27 06:00:35;;;;;;;;;;;;;;;;;;4970075;28;19926;-63
2024/01/27 06:03:02;;;;;;;;;;;;;;;;;;4970425;28;19935;-63
2024/01/27 06:05:29;;;;;;;;;;;;;;;;;;4970012;28;19949;-64
2024/01/27 06:07:56;;;;;;;;;;;;;;;;;;4970163;28;20021;-64
2024/01/27 06:10:24;;;;;;;;;;;;;;;;;;4969863;28;19934;-63
2024/01/27 06:12:51;;;;;;;;;;;;;;;;;;4975427;28;20001;-64
2024/01/27 06:15:18;;;;;;;;;;;;;;;;;;4968880;28;19926;-64
2024/01/27 06:17:46;;;;;;;;;;;;;;;;;;4992306;28;19926;-64
2024/01/27 06:20:13;;;;;;;;;;;;;;;;;;4969913;28;19930;-64
2024/01/27 06:22:40;;;;;;;;;;;;;;;;;;4969685;28;19926;-64
2024/01/27 06:25:07;;;;;;;;;;;;;;;;;;4984392;28;20005;-63
2024/01/27 06:27:34;;;;;;;;;;;;;;;;;;4969666;28;19930;-64
2024/01/27 06:30:01;;;;;;;;;;;;;;;;;;5000194;28;19930;-63
2024/01/27 06:32:28;;;;;;;;;;;;;;;;;;4969338;28;19926;-65
2024/01/27 06:34:55;;;;;;;;;;;;;;;;;;4969161;28;19938;-65
2024/01/27 06:37:22;;;;;;;;;;;;;;;;;;4969436;28;20003;-65
2024/01/27 06:39:49;;;;;;;;;;;;;;;;;;4969431;28;19933;-65
2024/01/27 06:42:16;;;;;;;;;;;;;;;;;;4969120;28;19926;-64
2024/01/27 06:44:43;;;;;;;;;;;;;;;;;;4970123;28;19926;-64
2024/01/27 06:47:10;;;;;;;;;;;;;;;;;;4975396;28;20381;-64
2024/01/27 06:49:37;;;;;;;;;;;;;;;;;;4970117;28;19933;-63
2024/01/27 06:52:04;;;;;;;;;;;;;;;;;;4970060;28;19954;-64
2024/01/27 06:54:31;;;;;;;;;;;;;;;;;;4969977;28;19966;-64
2024/01/27 06:56:58;;;;;;;;;;;;;;;;;;4969203;28;19926;-63
2024/01/27 06:59:25;;;;;;;;;;;;;;;;;;4969619;28;19930;-64
2024/01/27 07:01:52;;;;;;;;;;;;;;;;;;4969546;28;19926;-64
2024/01/27 07:04:19;;;;;;;;;;;;;;;;;;4979629;28;19972;-64
2024/01/27 07:06:47;;;;;;;;;;;;;;;;;;4969542;28;20000;-64
2024/01/27 07:09:14;;;;;;;;;;;;;;;;;;4970076;28;19934;-64
2024/01/27 07:11:41;;;;;;;;;;;;;;;;;;4968877;28;20008;-64
2024/01/27 07:14:08;;;;;;;;;;;;;;;;;;4969801;28;19926;-64
2024/01/27 07:16:35;;;;;;;;;;;;;;;;;;4969234;28;19931;-64
2024/01/27 07:19:02;;;;;;;;;;;;;;;;;;4973643;28;20397;-64
2024/01/27 07:21:31;;;;;;;;;;;;;;;;;;4964893;28;20397;-64
2024/01/27 07:23:58;;;;;;;;;;;;;;;;;;4977913;28;19939;-64
2024/01/27 07:26:25;;;;;;;;;;;;;;;;;;5011487;28;19926;-64
2024/01/27 07:28:52;;;;;;;;;;;;;;;;;;4971974;28;19951;-64
2024/01/27 07:31:19;;;;;;;;;;;;;;;;;;4971896;28;19938;-65
2024/01/27 07:33:46;;;;;;;;;;;;;;;;;;4974182;28;19933;-65
2024/01/27 07:36:14;;;;;;;;;;;;;;;;;;4983013;28;19929;-64
2024/01/27 07:38:41;;;;;;;;;;;;;;;;;;5074410;28;19924;-65
2024/01/27 07:41:08;;;;;;;;;;;;;;;;;;4976511;28;20456;-65
2024/01/27 07:43:35;;;;;;;;;;;;;;;;;;4971545;28;19926;-64
2024/01/27 07:46:02;;;;;;;;;;;;;;;;;;4970878;28;19971;-64
2024/01/27 07:48:29;;;;;;;;;;;;;;;;;;5057545;28;19924;-65
2024/01/27 07:50:56;;;;;;;;;;;;;;;;;;5017623;28;20343;-64
2024/01/27 07:53:23;;;;;;;;;;;;;;;;;;4975208;28;20205;-64
2024/01/27 07:55:53;;;;;;;;;;;;;;;;;;4972543;28;19987;-64
2024/01/27 07:58:20;;;;;;;;;;;;;;;;;;4971955;28;19926;-67
2024/01/27 08:00:47;;;;;;;;;;;;;;;;;;4977690;28;19941;-64
2024/01/27 08:03:14;;;;;;;;;;;;;;;;;;4976441;28;19930;-65
2024/01/27 08:05:42;;;;;;;;;;;;;;;;;;4972615;28;20454;-65
2024/01/27 08:08:09;;;;;;;;;;;;;;;;;;4971405;28;19926;-67
2024/01/27 08:10:36;;;;;;;;;;;;;;;;;;4982280;28;19938;-66
2024/01/27 08:13:03;;;;;;;;;;;;;;;;;;4971461;28;19976;-65
2024/01/27 08:15:31;;;;;;;;;;;;;;;;;;4971469;28;19926;-65
2024/01/27 08:17:58;;;;;;;;;;;;;;;;;;4969963;28;19933;-65
2024/01/27 08:20:25;;;;;;;;;;;;;;;;;;4971546;28;19934;-65
2024/01/27 08:22:52;;;;;;;;;;;;;;;;;;4972157;28;19930;-65
2024/01/27 08:25:19;;;;;;;;;;;;;;;;;;4971578;28;19976;-64
2024/01/27 08:27:46;;;;;;;;;;;;;;;;;;4979224;28;19934;-65
2024/01/27 08:30:13;;;;;;;;;;;;;;;;;;4970977;28;20404;-66
2024/01/27 08:32:40;;;;;;;;;;;;;;;;;;4964033;28;20363;-65
2024/01/27 08:35:07;;;;;;;;;;;;;;;;;;4978999;28;19932;-65
2024/01/27 08:37:38;;;;;;;;;;;;;;;;;;4991069;28;19934;-65
2024/01/27 08:40:05;;;;;;;;;;;;;;;;;;4959678;28;19927;-66
2024/01/27 08:42:32;;;;;;;;;;;;;;;;;;4958837;28;19930;-64
2024/01/27 08:45:00;;;;;;;;;;;;;;;;;;4974622;28;19987;-65
2024/01/27 08:47:27;;;;;;;;;;;;;;;;;;4970562;28;19941;-64
2024/01/27 08:49:54;;;;;;;;;;;;;;;;;;4968786;28;19926;-63
2024/01/27 08:52:21;;;;;;;;;;;;;;;;;;4977988;28;19988;-64
2024/01/27 08:54:48;;;;;;;;;;;;;;;;;;4960858;28;20031;-63
2024/01/27 08:57:15;;;;;;;;;;;;;;;;;;4959612;28;19930;-66
2024/01/27 08:59:42;;;;;;;;;;;;;;;;;;4968989;28;20348;-66
2024/01/27 09:02:09;;;;;;;;;;;;;;;;;;4980145;28;19956;-64
2024/01/27 09:04:36;;;;;;;;;;;;;;;;;;4969137;28;19988;-66
2024/01/27 09:07:03;;;;;;;;;;;;;;;;;;4965127;28;19965;-65
2024/01/27 09:09:30;;;;;;;;;;;;;;;;;;4958729;28;20305;-65
2024/01/27 09:11:57;;;;;;;;;;;;;;;;;;4960880;28;20014;-66
2024/01/27 09:14:24;;;;;;;;;;;;;;;;;;4967140;28;19965;-66
2024/01/27 09:16:52;;;;;;;;;;;;;;;;;;4993841;28;19924;-65
2024/01/27 09:19:19;;;;;;;;;;;;;;;;;;4991199;28;20021;-66
2024/01/27 09:21:46;;;;;;;;;;;;;;;;;;4997307;28;19934;-65
2024/01/27 09:24:13;;;;;;;;;;;;;;;;;;4962812;28;19926;-65
2024/01/27 09:26:40;;;;;;;;;;;;;;;;;;4961345;28;19933;-65
2024/01/27 09:29:07;;;;;;;;;;;;;;;;;;4982865;28;20299;-66
2024/01/27 09:31:34;;;;;;;;;;;;;;;;;;5007592;28;19924;-66
2024/01/27 09:34:01;;;;;;;;;;;;;;;;;;4976410;28;20023;-66
2024/01/27 09:36:28;;;;;;;;;;;;;;;;;;4972129;28;19977;-66
2024/01/27 09:38:55;;;;;;;;;;;;;;;;;;4985109;28;19953;-66
2024/01/27 09:41:22;;;;;;;;;;;;;;;;;;4970597;28;20680;-65
2024/01/27 09:43:48;;;;;;;;;;;;;;;;;;4975491;28;19968;-66
2024/01/27 09:46:16;;;;;;;;;;;;;;;;;;4968295;28;20016;-66
2024/01/27 09:48:44;;;;;;;;;;;;;;;;;;4961769;28;20064;-66
2024/01/27 09:51:12;;;;;;;;;;;;;;;;;;4962840;28;20017;-65
2024/01/27 09:53:40;;;;;;;;;;;;;;;;;;4971330;28;19979;-67
2024/01/27 09:56:07;;;;;;;;;;;;;;;;;;4971666;28;20014;-67
2024/01/27 09:58:35;;;;;;;;;;;;;;;;;;4971446;28;19930;-68
2024/01/27 10:01:03;;;;;;;;;;;;;;;;;;4969219;28;19926;-66
2024/01/27 10:03:32;;;;;;;;;;;;;;;;;;4964143;28;20370;-67
2024/01/27 10:05:59;;;;;;;;;;;;;;;;;;4969540;28;19926;-67
2024/01/27 10:08:26;;;;;;;;;;;;;;;;;;4962682;28;19996;-67
2024/01/27 10:10:53;;;;;;;;;;;;;;;;;;4971501;28;19984;-67
2024/01/27 10:13:26;;;;;;;;;;;;;;;;;;4970614;28;19930;-64
2024/01/27 10:15:53;;;;;;;;;;;;;;;;;;4968739;28;20266;-65
2024/01/27 10:18:20;;;;;;;;;;;;;;;;;;4964615;28;19969;-65
2024/01/27 10:20:48;;;;;;;;;;;;;;;;;;4969573;28;19997;-66
2024/01/27 10:23:15;;;;;;;;;;;;;;;;;;4979258;28;20501;-66
2024/01/27 10:25:42;;;;;;;;;;;;;;;;;;4967449;28;19933;-66
2024/01/27 10:28:09;;;;;;;;;;;;;;;;;;4975694;28;19931;-67
2024/01/27 10:30:37;;;;;;;;;;;;;;;;;;4973443;28;20343;-67
2024/01/27 10:33:04;;;;;;;;;;;;;;;;;;4975582;28;19926;-66
2024/01/27 10:35:31;;;;;;;;;;;;;;;;;;4977481;28;19983;-66
2024/01/27 10:37:58;;;;;;;;;;;;;;;;;;4973699;28;19939;-66
2024/01/27 10:40:26;;;;;;;;;;;;;;;;;;4975294;28;20364;-66
2024/01/27 10:42:53;;;;;;;;;;;;;;;;;;4978384;28;19929;-66
2024/01/27 10:45:20;;;;;;;;;;;;;;;;;;4970202;28;19980;-66
2024/01/27 10:47:47;;;;;;;;;;;;;;;;;;4967163;28;19985;-65
2024/01/27 10:50:14;;;;;;;;;;;;;;;;;;4975849;28;20013;-67
2024/01/27 10:52:42;;;;;;;;;;;;;;;;;;4977364;28;19938;-67
2024/01/27 10:55:09;;;;;;;;;;;;;;;;;;4966472;28;20382;-66
2024/01/27 10:57:36;;;;;;;;;;;;;;;;;;4971405;28;20018;-67
2024/01/27 11:00:06;;;;;;;;;;;;;;;;;;4973654;28;19980;-67
2024/01/27 11:02:33;;;;;;;;;;;;;;;;;;4969084;28;20286;-66
2024/01/27 11:05:00;;;;;;;;;;;;;;;;;;4953663;28;19977;-66
2024/01/27 11:07:27;;;;;;;;;;;;;;;;;;4980918;28;19926;-66
2024/01/27 11:09:54;;;;;;;;;;;;;;;;;;4976541;28;19926;-66
2024/01/27 11:12:21;;;;;;;;;;;;;;;;;;4965206;28;20444;-67
2024/01/27 11:14:48;;;;;;;;;;;;;;;;;;4969364;28;19977;-66
2024/01/27 11:17:16;;;;;;;;;;;;;;;;;;4983337;28;19929;-66
2024/01/27 11:19:43;;;;;;;;;;;;;;;;;;5021624;28;20013;-67
2024/01/27 11:22:09;;;;;;;;;;;;;;;;;;4966034;28;19984;-67
2024/01/27 11:24:36;;;;;;;;;;;;;;;;;;4972457;28;19926;-67
2024/01/27 11:27:03;;;;;;;;;;;;;;;;;;4979377;28;19926;-66
2024/01/27 11:29:32;;;;;;;;;;;;;;;;;;4963736;28;20447;-67
2024/01/27 11:31:59;;;;;;;;;;;;;;;;;;4967792;28;19933;-66
2024/01/27 11:34:26;;;;;;;;;;;;;;;;;;4972225;28;19926;-67
2024/01/27 11:36:53;;;;;;;;;;;;;;;;;;4969324;28;19926;-67
2024/01/27 11:39:20;;;;;;;;;;;;;;;;;;4971185;28;19968;-65
2024/01/27 11:41:47;;;;;;;;;;;;;;;;;;4962290;28;19926;-65
2024/01/27 11:44:15;;;;;;;;;;;;;;;;;;4957746;28;19933;-65
2024/01/27 11:46:42;;;;;;;;;;;;;;;;;;4968537;28;19963;-65
2024/01/27 11:49:09;;;;;;;;;;;;;;;;;;4970976;28;19926;-65
2024/01/27 11:51:36;;;;;;;;;;;;;;;;;;4961300;28;19926;-64
2024/01/27 11:54:03;;;;;;;;;;;;;;;;;;4971181;28;19972;-64
2024/01/27 11:56:30;;;;;;;;;;;;;;;;;;4971061;28;20951;-65
2024/01/27 11:58:57;;;;;;;;;;;;;;;;;;4972370;28;19930;-64
2024/01/27 12:01:24;;;;;;;;;;;;;;;;;;4956782;28;19930;-65
2024/01/27 12:03:51;;;;;;;;;;;;;;;;;;4984348;28;20379;-66
2024/01/27 12:06:19;;;;;;;;;;;;;;;;;;4986725;28;19966;-65
2024/01/27 12:08:47;;;;;;;;;;;;;;;;;;5004810;28;20084;-65
2024/01/27 12:11:14;;;;;;;;;;;;;;;;;;4983259;28;19938;-65
2024/01/27 12:13:41;;;;;;;;;;;;;;;;;;4962132;28;19933;-64
2024/01/27 12:16:08;;;;;;;;;;;;;;;;;;4969618;28;20086;-64
2024/01/27 12:18:35;;;;;;;;;;;;;;;;;;4971269;28;20408;-65
2024/01/27 12:21:02;;;;;;;;;;;;;;;;;;4970336;28;19933;-65
2024/01/27 12:23:28;;;;;;;;;;;;;;;;;;4964687;28;19926;-65
2024/01/27 12:25:56;;;;;;;;;;;;;;;;;;4974460;28;19940;-65
2024/01/27 12:28:23;;;;;;;;;;;;;;;;;;4971168;28;20020;-65
2024/01/27 12:30:50;;;;;;;;;;;;;;;;;;4970281;28;19980;-65
2024/01/27 12:33:19;;;;;;;;;;;;;;;;;;4971290;28;19987;-64
2024/01/27 12:35:46;;;;;;;;;;;;;;;;;;4969628;28;20036;-65
2024/01/27 12:38:13;;;;;;;;;;;;;;;;;;4959513;28;19930;-64
2024/01/27 12:40:40;;;;;;;;;;;;;;;;;;4968432;28;19926;-64
2024/01/27 12:43:07;;;;;;;;;;;;;;;;;;4972047;28;20457;-65
2024/01/27 12:45:34;;;;;;;;;;;;;;;;;;4962340;28;20455;-64
2024/01/27 12:48:02;;;;;;;;;;;;;;;;;;4971056;28;19926;-65
2024/01/27 12:50:30;;;;;;;;;;;;;;;;;;4966145;28;19941;-65
2024/01/27 12:52:57;;;;;;;;;;;;;;;;;;4969458;28;19937;-65
2024/01/27 12:55:24;;;;;;;;;;;;;;;;;;4969711;28;19972;-65
2024/01/27 12:57:51;;;;;;;;;;;;;;;;;;4970691;28;20289;-65
2024/01/27 13:00:18;;;;;;;;;;;;;;;;;;4971739;28;19934;-65
2024/01/27 13:02:45;;;;;;;;;;;;;;;;;;4964471;28;19926;-64
2024/01/27 13:05:12;;;;;;;;;;;;;;;;;;4969438;28;19962;-64
2024/01/27 13:07:39;;;;;;;;;;;;;;;;;;4968604;28;19958;-64
2024/01/27 13:10:07;;;;;;;;;;;;;;;;;;4962681;28;19931;-64
2024/01/27 13:12:35;;;;;;;;;;;;;;;;;;4962133;28;19930;-65
2024/01/27 13:15:02;;;;;;;;;;;;;;;;;;4962690;28;19927;-65
2024/01/27 13:17:29;;;;;;;;;;;;;;;;;;4956838;28;19962;-66
2024/01/27 13:19:56;;;;;;;;;;;;;;;;;;4960895;28;20008;-65
2024/01/27 13:22:24;;;;;;;;;;;;;;;;;;4963865;28;19927;-64
2024/01/27 13:24:52;;;;;;;;;;;;;;;;;;4955907;28;19926;-64
2024/01/27 13:27:19;;;;;;;;;;;;;;;;;;4953315;28;19933;-65
2024/01/27 13:29:46;;;;;;;;;;;;;;;;;;4962228;28;19949;-65
2024/01/27 13:32:13;;;;;;;;;;;;;;;;;;4965971;28;19926;-65
2024/01/27 13:34:40;;;;;;;;;;;;;;;;;;4990255;28;19926;-64
2024/01/27 13:37:08;;;;;;;;;;;;;;;;;;4967465;28;19980;-65
2024/01/27 13:39:37;;;;;;;;;;;;;;;;;;4963967;28;19934;-64
2024/01/27 13:42:04;;;;;;;;;;;;;;;;;;4958993;28;19926;-65
2024/01/27 13:44:35;;;;;;;;;;;;;;;;;;4956440;28;20009;-66
2024/01/27 13:47:02;;;;;;;;;;;;;;;;;;4966300;28;19933;-67
2024/01/27 13:49:29;;;;;;;;;;;;;;;;;;4958899;28;19984;-66
2024/01/27 13:51:56;;;;;;;;;;;;;;;;;;4979012;28;20385;-67
2024/01/27 13:54:23;;;;;;;;;;;;;;;;;;4971197;28;19926;-67
2024/01/27 13:56:50;;;;;;;;;;;;;;;;;;4971016;28;19992;-67
2024/01/27 13:59:17;;;;;;;;;;;;;;;;;;4960157;28;19977;-67
2024/01/27 14:01:44;;;;;;;;;;;;;;;;;;4970129;28;19926;-68
2024/01/27 14:04:11;;;;;;;;;;;;;;;;;;4964996;28;20332;-66
2024/01/27 14:06:38;;;;;;;;;;;;;;;;;;4958998;28;19972;-64
2024/01/27 14:09:06;;;;;;;;;;;;;;;;;;4973808;28;19972;-68
2024/01/27 14:11:34;;;;;;;;;;;;;;;;;;4957534;28;20297;-67
2024/01/27 14:14:01;;;;;;;;;;;;;;;;;;4969112;28;19926;-67
2024/01/27 14:16:28;;;;;;;;;;;;;;;;;;4959633;28;20005;-68
2024/01/27 14:18:56;;;;;;;;;;;;;;;;;;4969907;28;19957;-67
2024/01/27 14:21:23;;;;;;;;;;;;;;;;;;4969533;28;20407;-67
2024/01/27 14:23:56;;;;;;;;;;;;;;;;;;4970647;28;19961;-65
2024/01/27 14:26:23;;;;;;;;;;;;;;;;;;4972983;28;19934;-66
2024/01/27 14:28:50;;;;;;;;;;;;;;;;;;4976764;28;19930;-66
2024/01/27 14:31:17;;;;;;;;;;;;;;;;;;4976290;28;20462;-66
2024/01/27 14:33:44;;;;;;;;;;;;;;;;;;4976743;28;19960;-66
2024/01/27 14:36:12;;;;;;;;;;;;;;;;;;4967975;28;19972;-66
2024/01/27 14:38:40;;;;;;;;;;;;;;;;;;4970567;28;19977;-65
2024/01/27 14:41:07;;;;;;;;;;;;;;;;;;4981083;28;19930;-65
2024/01/27 14:43:34;;;;;;;;;;;;;;;;;;4989994;28;19983;-66
2024/01/27 14:46:01;;;;;;;;;;;;;;;;;;4972151;28;20435;-65
2024/01/27 14:48:28;;;;;;;;;;;;;;;;;;4976530;28;19969;-66
2024/01/27 14:50:58;;;;;;;;;;;;;;;;;;4970200;28;20344;-66
2024/01/27 14:53:25;;;;;;;;;;;;;;;;;;4963507;28;20377;-65
2024/01/27 14:55:53;;;;;;;;;;;;;;;;;;4983870;28;19973;-69
2024/01/27 14:58:20;;;;;;;;;;;;;;;;;;4983167;28;19928;-68
2024/01/27 15:00:52;;;;;;;;;;;;;;;;;;4981044;28;19926;-68
2024/01/27 15:03:19;;;;;;;;;;;;;;;;;;4975274;28;20384;-66
2024/01/27 15:05:46;;;;;;;;;;;;;;;;;;4987732;28;19977;-66
2024/01/27 15:08:13;;;;;;;;;;;;;;;;;;4964128;28;19930;-67
2024/01/27 15:10:42;;;;;;;;;;;;;;;;;;4974681;28;20032;-69
2024/01/27 15:13:10;;;;;;;;;;;;;;;;;;4970497;28;19930;-68
2024/01/27 15:15:37;;;;;;;;;;;;;;;;;;4979154;28;19926;-68
2024/01/27 15:18:04;;;;;;;;;;;;;;;;;;4973297;28;20381;-68
2024/01/27 15:20:31;;;;;;;;;;;;;;;;;;4975277;28;19926;-69
2024/01/27 15:22:58;;;;;;;;;;;;;;;;;;4967738;28;19927;-69
2024/01/27 15:25:25;;;;;;;;;;;;;;;;;;4969828;28;19926;-69
2024/01/27 15:27:53;;;;;;;;;;;;;;;;;;4975483;28;19926;-69
2024/01/27 15:30:20;;;;;;;;;;;;;;;;;;4975816;28;19926;-70
2024/01/27 15:32:47;;;;;;;;;;;;;;;;;;4973908;28;19954;-69
2024/01/27 15:35:14;;;;;;;;;;;;;;;;;;4972814;28;19926;-68
2024/01/27 15:37:41;;;;;;;;;;;;;;;;;;4972411;28;19987;-68
2024/01/27 15:40:09;;;;;;;;;;;;;;;;;;4969427;28;20366;-67
2024/01/27 15:42:36;;;;;;;;;;;;;;;;;;4971580;28;19926;-67
2024/01/27 15:45:03;;;;;;;;;;;;;;;;;;4972357;28;20393;-67
2024/01/27 15:47:30;;;;;;;;;;;;;;;;;;4972141;28;19934;-69
2024/01/27 15:50:03;;;;;;;;;;;;;;;;;;5004999;28;19924;-67
2024/01/27 15:52:30;;;;;;;;;;;;;;;;;;4960375;28;19930;-67
2024/01/27 15:54:57;;;;;;;;;;;;;;;;;;4972005;28;19938;-66
2024/01/27 15:57:25;;;;;;;;;;;;;;;;;;4971261;28;19973;-66
2024/01/27 15:59:52;;;;;;;;;;;;;;;;;;4971608;28;19932;-65
2024/01/27 16:02:19;;;;;;;;;;;;;;;;;;4970340;28;20035;-66
2024/01/27 16:04:46;;;;;;;;;;;;;;;;;;4971476;28;19926;-67
2024/01/27 16:07:13;;;;;;;;;;;;;;;;;;4969582;28;19954;-68
2024/01/27 16:09:40;;;;;;;;;;;;;;;;;;4970472;28;19966;-67
2024/01/27 16:12:07;;;;;;;;;;;;;;;;;;4971603;28;19926;-67
2024/01/27 16:14:34;;;;;;;;;;;;;;;;;;4967303;28;19976;-68
2024/01/27 16:17:01;;;;;;;;;;;;;;;;;;4971482;28;20334;-67
2024/01/27 16:19:28;;;;;;;;;;;;;;;;;;4971376;28;19930;-67
2024/01/27 16:21:55;;;;;;;;;;;;;;;;;;4970768;28;19972;-68
2024/01/27 16:24:23;;;;;;;;;;;;;;;;;;4996157;28;20443;-69
2024/01/27 16:26:50;;;;;;;;;;;;;;;;;;4972277;28;19930;-67
2024/01/27 16:29:17;;;;;;;;;;;;;;;;;;4970978;28;19934;-67
2024/01/27 16:31:44;;;;;;;;;;;;;;;;;;4971463;28;19969;-68
2024/01/27 16:34:11;;;;;;;;;;;;;;;;;;4971688;28;19941;-68
2024/01/27 16:36:38;;;;;;;;;;;;;;;;;;4971104;28;19930;-68
2024/01/27 16:39:05;;;;;;;;;;;;;;;;;;4967208;28;20388;-68
2024/01/27 16:41:32;;;;;;;;;;;;;;;;;;4977209;28;19972;-67
2024/01/27 16:43:59;;;;;;;;;;;;;;;;;;4970841;28;19973;-68